sensor_id;sensor_type;location;lat;lon;timestamp;temperature;humidity
53748;DHT22;39655;53.210;5.768;2022-10-13T00:00:40;11.10;89.40
53748;DHT22;39655;53.210;5.768;2022-10-13T00:03:07;11.00;89.30
53748;DHT22;39655;53.210;5.768;2022-10-13T00:05:33;11.10;89.40
53748;DHT22;39655;53.210;5.768;2022-10-13T00:07:59;11.00;89.40
53748;DHT22;39655;53.210;5.768;2022-10-13T00:10:25;11.00;89.60
53748;DHT22;39655;53.210;5.768;2022-10-13T00:12:52;11.00;89.50
53748;DHT22;39655;53.210;5.768;2022-10-13T00:15:18;11.00;89.60
53748;DHT22;39655;53.210;5.768;2022-10-13T00:17:44;11.10;89.70
53748;DHT22;39655;53.210;5.768;2022-10-13T00:20:10;11.00;89.70
53748;DHT22;39655;53.210;5.768;2022-10-13T00:22:36;11.10;89.80
53748;DHT22;39655;53.210;5.768;2022-10-13T00:25:02;11.10;89.90
53748;DHT22;39655;53.210;5.768;2022-10-13T00:27:28;11.10;90.00
53748;DHT22;39655;53.210;5.768;2022-10-13T00:29:53;11.10;90.00
53748;DHT22;39655;53.210;5.768;2022-10-13T00:32:19;11.00;90.00
53748;DHT22;39655;53.210;5.768;2022-10-13T00:34:45;11.10;90.00
53748;DHT22;39655;53.210;5.768;2022-10-13T00:37:10;11.10;90.10
53748;DHT22;39655;53.210;5.768;2022-10-13T00:39:37;11.10;90.10
53748;DHT22;39655;53.210;5.768;2022-10-13T00:42:03;11.10;90.10
53748;DHT22;39655;53.210;5.768;2022-10-13T00:47:24;11.10;90.10
53748;DHT22;39655;53.210;5.768;2022-10-13T00:49:51;11.10;90.20
53748;DHT22;39655;53.210;5.768;2022-10-13T00:52:19;11.10;90.30
53748;DHT22;39655;53.210;5.768;2022-10-13T00:54:46;11.10;90.20
53748;DHT22;39655;53.210;5.768;2022-10-13T00:57:12;11.10;90.20
53748;DHT22;39655;53.210;5.768;2022-10-13T00:59:38;11.10;90.10
53748;DHT22;39655;53.210;5.768;2022-10-13T01:02:05;11.10;90.10
53748;DHT22;39655;53.210;5.768;2022-10-13T01:04:35;11.10;90.10
53748;DHT22;39655;53.210;5.768;2022-10-13T01:07:05;11.10;90.10
53748;DHT22;39655;53.210;5.768;2022-10-13T01:09:31;11.10;90.10
53748;DHT22;39655;53.210;5.768;2022-10-13T01:17:45;11.10;90.20
53748;DHT22;39655;53.210;5.768;2022-10-13T01:31:18;11.10;90.20
53748;DHT22;39655;53.210;5.768;2022-10-13T01:33:59;11.10;90.30
53748;DHT22;39655;53.210;5.768;2022-10-13T01:36:49;11.10;90.40
53748;DHT22;39655;53.210;5.768;2022-10-13T01:39:30;11.10;90.40
53748;DHT22;39655;53.210;5.768;2022-10-13T01:42:04;11.10;90.60
53748;DHT22;39655;53.210;5.768;2022-10-13T01:44:39;11.10;90.40
53748;DHT22;39655;53.210;5.768;2022-10-13T01:47:07;11.10;90.30
53748;DHT22;39655;53.210;5.768;2022-10-13T01:49:35;11.10;90.30
53748;DHT22;39655;53.210;5.768;2022-10-13T01:52:05;11.10;90.40
53748;DHT22;39655;53.210;5.768;2022-10-13T01:54:32;11.10;90.40
53748;DHT22;39655;53.210;5.768;2022-10-13T01:56:58;11.10;90.50
53748;DHT22;39655;53.210;5.768;2022-10-13T01:59:25;11.10;90.70
53748;DHT22;39655;53.210;5.768;2022-10-13T02:02:20;11.10;90.80
53748;DHT22;39655;53.210;5.768;2022-10-13T02:05:13;11.10;90.70
53748;DHT22;39655;53.210;5.768;2022-10-13T02:07:53;11.10;90.70
53748;DHT22;39655;53.210;5.768;2022-10-13T02:10:27;11.10;90.80
53748;DHT22;39655;53.210;5.768;2022-10-13T02:12:56;11.10;90.80
53748;DHT22;39655;53.210;5.768;2022-10-13T02:15:51;11.10;90.90
53748;DHT22;39655;53.210;5.768;2022-10-13T02:18:20;11.10;91.00
53748;DHT22;39655;53.210;5.768;2022-10-13T02:20:49;11.10;91.00
53748;DHT22;39655;53.210;5.768;2022-10-13T02:23:16;11.10;91.10
53748;DHT22;39655;53.210;5.768;2022-10-13T02:25:43;11.10;91.10
53748;DHT22;39655;53.210;5.768;2022-10-13T02:28:10;11.00;91.20
53748;DHT22;39655;53.210;5.768;2022-10-13T02:30:38;11.00;91.10
53748;DHT22;39655;53.210;5.768;2022-10-13T02:33:05;11.10;91.10
53748;DHT22;39655;53.210;5.768;2022-10-13T02:35:32;11.10;91.10
53748;DHT22;39655;53.210;5.768;2022-10-13T02:37:58;11.00;91.20
53748;DHT22;39655;53.210;5.768;2022-10-13T02:40:24;11.00;91.30
53748;DHT22;39655;53.210;5.768;2022-10-13T02:42:50;11.00;91.30
53748;DHT22;39655;53.210;5.768;2022-10-13T02:45:19;11.00;91.40
53748;DHT22;39655;53.210;5.768;2022-10-13T02:47:44;11.00;91.50
53748;DHT22;39655;53.210;5.768;2022-10-13T02:50:10;11.00;91.50
53748;DHT22;39655;53.210;5.768;2022-10-13T02:52:36;11.00;91.50
53748;DHT22;39655;53.210;5.768;2022-10-13T02:55:03;11.00;91.60
53748;DHT22;39655;53.210;5.768;2022-10-13T02:57:29;11.00;91.60
53748;DHT22;39655;53.210;5.768;2022-10-13T02:59:54;11.00;91.70
53748;DHT22;39655;53.210;5.768;2022-10-13T03:02:20;11.00;91.80
53748;DHT22;39655;53.210;5.768;2022-10-13T03:04:47;11.00;91.80
53748;DHT22;39655;53.210;5.768;2022-10-13T03:07:14;11.00;91.90
53748;DHT22;39655;53.210;5.768;2022-10-13T03:09:39;11.00;92.00
53748;DHT22;39655;53.210;5.768;2022-10-13T03:12:08;11.00;92.10
53748;DHT22;39655;53.210;5.768;2022-10-13T03:14:34;11.00;92.10
53748;DHT22;39655;53.210;5.768;2022-10-13T03:17:00;11.00;92.20
53748;DHT22;39655;53.210;5.768;2022-10-13T03:19:25;11.00;92.40
53748;DHT22;39655;53.210;5.768;2022-10-13T03:21:51;11.00;92.40
53748;DHT22;39655;53.210;5.768;2022-10-13T03:24:17;11.00;92.50
53748;DHT22;39655;53.210;5.768;2022-10-13T03:26:42;11.00;92.50
53748;DHT22;39655;53.210;5.768;2022-10-13T03:29:15;11.00;92.50
53748;DHT22;39655;53.210;5.768;2022-10-13T03:31:42;11.00;92.60
53748;DHT22;39655;53.210;5.768;2022-10-13T03:34:09;11.00;92.70
53748;DHT22;39655;53.210;5.768;2022-10-13T03:36:36;11.10;92.80
53748;DHT22;39655;53.210;5.768;2022-10-13T03:39:02;11.00;92.90
53748;DHT22;39655;53.210;5.768;2022-10-13T03:41:27;11.10;92.90
53748;DHT22;39655;53.210;5.768;2022-10-13T03:43:53;11.00;92.90
53748;DHT22;39655;53.210;5.768;2022-10-13T03:46:19;11.10;93.00
53748;DHT22;39655;53.210;5.768;2022-10-13T03:48:45;11.10;92.90
53748;DHT22;39655;53.210;5.768;2022-10-13T03:51:15;11.10;93.00
53748;DHT22;39655;53.210;5.768;2022-10-13T03:53:41;11.10;93.10
53748;DHT22;39655;53.210;5.768;2022-10-13T03:56:14;11.10;93.10
53748;DHT22;39655;53.210;5.768;2022-10-13T03:58:40;11.10;93.10
53748;DHT22;39655;53.210;5.768;2022-10-13T04:01:07;11.10;93.10
53748;DHT22;39655;53.210;5.768;2022-10-13T04:03:33;11.10;93.10
53748;DHT22;39655;53.210;5.768;2022-10-13T04:06:01;11.10;93.20
53748;DHT22;39655;53.210;5.768;2022-10-13T04:08:28;11.10;93.30
53748;DHT22;39655;53.210;5.768;2022-10-13T04:11:02;11.10;93.40
53748;DHT22;39655;53.210;5.768;2022-10-13T04:13:28;11.10;93.40
53748;DHT22;39655;53.210;5.768;2022-10-13T04:15:54;11.10;93.40
53748;DHT22;39655;53.210;5.768;2022-10-13T04:18:19;11.10;93.50
53748;DHT22;39655;53.210;5.768;2022-10-13T04:20:45;11.10;93.50
53748;DHT22;39655;53.210;5.768;2022-10-13T04:23:10;11.10;93.60
53748;DHT22;39655;53.210;5.768;2022-10-13T04:25:37;11.10;93.70
53748;DHT22;39655;53.210;5.768;2022-10-13T04:28:06;11.10;93.80
53748;DHT22;39655;53.210;5.768;2022-10-13T04:30:33;11.20;93.90
53748;DHT22;39655;53.210;5.768;2022-10-13T04:32:59;11.10;93.90
53748;DHT22;39655;53.210;5.768;2022-10-13T04:35:25;11.10;94.00
53748;DHT22;39655;53.210;5.768;2022-10-13T04:37:50;11.10;94.10
53748;DHT22;39655;53.210;5.768;2022-10-13T04:40:16;11.10;94.10
53748;DHT22;39655;53.210;5.768;2022-10-13T04:42:42;11.10;94.10
53748;DHT22;39655;53.210;5.768;2022-10-13T04:45:08;11.10;94.10
53748;DHT22;39655;53.210;5.768;2022-10-13T04:47:34;11.20;94.10
53748;DHT22;39655;53.210;5.768;2022-10-13T04:50:01;11.10;94.20
53748;DHT22;39655;53.210;5.768;2022-10-13T04:52:27;11.10;94.40
53748;DHT22;39655;53.210;5.768;2022-10-13T04:54:52;11.10;94.40
53748;DHT22;39655;53.210;5.768;2022-10-13T04:57:18;11.10;94.30
53748;DHT22;39655;53.210;5.768;2022-10-13T04:59:44;11.10;94.40
53748;DHT22;39655;53.210;5.768;2022-10-13T05:02:10;11.10;94.40
53748;DHT22;39655;53.210;5.768;2022-10-13T05:04:38;11.10;94.40
53748;DHT22;39655;53.210;5.768;2022-10-13T05:07:04;11.10;94.40
53748;DHT22;39655;53.210;5.768;2022-10-13T05:09:30;11.10;94.50
53748;DHT22;39655;53.210;5.768;2022-10-13T05:11:55;11.10;94.50
53748;DHT22;39655;53.210;5.768;2022-10-13T05:14:22;11.10;94.60
53748;DHT22;39655;53.210;5.768;2022-10-13T05:16:47;11.10;94.60
53748;DHT22;39655;53.210;5.768;2022-10-13T05:19:14;11.10;94.70
53748;DHT22;39655;53.210;5.768;2022-10-13T05:21:40;11.10;94.70
53748;DHT22;39655;53.210;5.768;2022-10-13T05:24:06;11.10;94.80
53748;DHT22;39655;53.210;5.768;2022-10-13T05:26:37;11.10;94.80
53748;DHT22;39655;53.210;5.768;2022-10-13T05:29:04;11.10;94.80
53748;DHT22;39655;53.210;5.768;2022-10-13T05:31:32;11.10;94.80
53748;DHT22;39655;53.210;5.768;2022-10-13T05:33:59;11.10;94.80
53748;DHT22;39655;53.210;5.768;2022-10-13T05:36:27;11.10;94.80
53748;DHT22;39655;53.210;5.768;2022-10-13T05:38:57;11.00;94.90
53748;DHT22;39655;53.210;5.768;2022-10-13T05:41:24;11.00;94.90
53748;DHT22;39655;53.210;5.768;2022-10-13T05:43:55;11.00;94.90
53748;DHT22;39655;53.210;5.768;2022-10-13T05:46:22;11.00;95.10
53748;DHT22;39655;53.210;5.768;2022-10-13T05:48:48;11.00;95.10
53748;DHT22;39655;53.210;5.768;2022-10-13T05:51:16;11.00;95.10
53748;DHT22;39655;53.210;5.768;2022-10-13T05:53:47;11.10;95.10
53748;DHT22;39655;53.210;5.768;2022-10-13T05:56:18;11.10;95.10
53748;DHT22;39655;53.210;5.768;2022-10-13T05:58:49;11.10;95.10
53748;DHT22;39655;53.210;5.768;2022-10-13T06:01:19;11.10;95.10
53748;DHT22;39655;53.210;5.768;2022-10-13T06:03:47;11.10;95.10
53748;DHT22;39655;53.210;5.768;2022-10-13T06:06:17;11.10;95.10
53748;DHT22;39655;53.210;5.768;2022-10-13T06:08:43;11.10;95.20
53748;DHT22;39655;53.210;5.768;2022-10-13T06:11:08;11.10;95.20
53748;DHT22;39655;53.210;5.768;2022-10-13T06:13:34;11.10;95.20
53748;DHT22;39655;53.210;5.768;2022-10-13T06:16:00;11.10;95.30
53748;DHT22;39655;53.210;5.768;2022-10-13T06:18:26;11.10;95.40
53748;DHT22;39655;53.210;5.768;2022-10-13T06:20:51;11.10;95.40
53748;DHT22;39655;53.210;5.768;2022-10-13T06:23:17;11.10;95.60
53748;DHT22;39655;53.210;5.768;2022-10-13T06:25:52;11.20;95.50
53748;DHT22;39655;53.210;5.768;2022-10-13T06:28:19;11.20;95.50
53748;DHT22;39655;53.210;5.768;2022-10-13T06:30:46;11.20;95.60
53748;DHT22;39655;53.210;5.768;2022-10-13T06:33:17;11.20;95.60
53748;DHT22;39655;53.210;5.768;2022-10-13T06:35:43;11.20;95.60
53748;DHT22;39655;53.210;5.768;2022-10-13T06:38:09;11.30;95.60
53748;DHT22;39655;53.210;5.768;2022-10-13T06:40:34;11.30;95.60
53748;DHT22;39655;53.210;5.768;2022-10-13T06:43:00;11.30;95.60
53748;DHT22;39655;53.210;5.768;2022-10-13T06:45:26;11.40;95.60
53748;DHT22;39655;53.210;5.768;2022-10-13T06:47:52;11.40;95.60
53748;DHT22;39655;53.210;5.768;2022-10-13T06:50:19;11.40;95.60
53748;DHT22;39655;53.210;5.768;2022-10-13T06:52:45;11.40;95.70
53748;DHT22;39655;53.210;5.768;2022-10-13T06:55:10;11.40;95.60
53748;DHT22;39655;53.210;5.768;2022-10-13T06:57:36;11.40;95.70
53748;DHT22;39655;53.210;5.768;2022-10-13T07:00:04;11.50;95.70
53748;DHT22;39655;53.210;5.768;2022-10-13T07:02:29;11.50;95.70
53748;DHT22;39655;53.210;5.768;2022-10-13T07:04:55;11.60;95.70
53748;DHT22;39655;53.210;5.768;2022-10-13T07:07:21;11.60;95.80
53748;DHT22;39655;53.210;5.768;2022-10-13T07:09:49;11.70;95.90
53748;DHT22;39655;53.210;5.768;2022-10-13T07:12:15;11.70;95.90
53748;DHT22;39655;53.210;5.768;2022-10-13T07:14:41;11.70;95.90
53748;DHT22;39655;53.210;5.768;2022-10-13T07:17:06;11.80;96.00
53748;DHT22;39655;53.210;5.768;2022-10-13T07:19:32;11.80;96.00
53748;DHT22;39655;53.210;5.768;2022-10-13T07:21:57;11.80;96.00
53748;DHT22;39655;53.210;5.768;2022-10-13T07:24:23;11.90;96.10
53748;DHT22;39655;53.210;5.768;2022-10-13T07:26:49;12.00;96.20
53748;DHT22;39655;53.210;5.768;2022-10-13T07:29:15;12.00;96.20
53748;DHT22;39655;53.210;5.768;2022-10-13T07:31:44;12.10;96.20
53748;DHT22;39655;53.210;5.768;2022-10-13T07:34:11;12.10;96.30
53748;DHT22;39655;53.210;5.768;2022-10-13T07:36:37;12.20;96.40
53748;DHT22;39655;53.210;5.768;2022-10-13T07:39:05;12.20;96.40
53748;DHT22;39655;53.210;5.768;2022-10-13T07:41:31;12.30;96.50
53748;DHT22;39655;53.210;5.768;2022-10-13T07:43:57;12.40;96.50
53748;DHT22;39655;53.210;5.768;2022-10-13T07:46:24;12.40;96.60
53748;DHT22;39655;53.210;5.768;2022-10-13T07:48:52;12.40;96.50
53748;DHT22;39655;53.210;5.768;2022-10-13T07:51:19;12.50;96.60
53748;DHT22;39655;53.210;5.768;2022-10-13T07:53:45;12.50;96.60
53748;DHT22;39655;53.210;5.768;2022-10-13T07:56:13;12.50;96.60
53748;DHT22;39655;53.210;5.768;2022-10-13T07:58:40;12.60;96.60
53748;DHT22;39655;53.210;5.768;2022-10-13T08:01:07;12.60;96.70
53748;DHT22;39655;53.210;5.768;2022-10-13T08:03:33;12.60;96.70
53748;DHT22;39655;53.210;5.768;2022-10-13T08:05:59;12.60;96.70
53748;DHT22;39655;53.210;5.768;2022-10-13T08:08:25;12.70;96.70
53748;DHT22;39655;53.210;5.768;2022-10-13T08:10:51;12.70;96.70
53748;DHT22;39655;53.210;5.768;2022-10-13T08:13:17;12.70;96.70
53748;DHT22;39655;53.210;5.768;2022-10-13T08:15:43;12.80;96.70
53748;DHT22;39655;53.210;5.768;2022-10-13T08:18:11;12.80;96.70
53748;DHT22;39655;53.210;5.768;2022-10-13T08:20:41;12.80;96.70
53748;DHT22;39655;53.210;5.768;2022-10-13T08:23:08;12.90;96.80
53748;DHT22;39655;53.210;5.768;2022-10-13T08:25:41;12.90;96.70
53748;DHT22;39655;53.210;5.768;2022-10-13T08:28:23;12.90;96.80
53748;DHT22;39655;53.210;5.768;2022-10-13T08:30:51;13.00;96.80
53748;DHT22;39655;53.210;5.768;2022-10-13T08:33:18;13.10;96.80
53748;DHT22;39655;53.210;5.768;2022-10-13T08:35:45;13.10;96.80
53748;DHT22;39655;53.210;5.768;2022-10-13T08:38:10;13.10;96.70
53748;DHT22;39655;53.210;5.768;2022-10-13T08:40:37;13.10;96.70
53748;DHT22;39655;53.210;5.768;2022-10-13T08:43:12;13.20;96.70
53748;DHT22;39655;53.210;5.768;2022-10-13T08:45:38;13.20;96.60
53748;DHT22;39655;53.210;5.768;2022-10-13T08:48:05;13.20;96.60
53748;DHT22;39655;53.210;5.768;2022-10-13T08:50:34;13.30;96.70
53748;DHT22;39655;53.210;5.768;2022-10-13T08:53:13;13.30;96.60
53748;DHT22;39655;53.210;5.768;2022-10-13T08:55:50;13.40;96.60
53748;DHT22;39655;53.210;5.768;2022-10-13T08:58:27;13.40;96.60
53748;DHT22;39655;53.210;5.768;2022-10-13T09:01:05;13.40;96.40
53748;DHT22;39655;53.210;5.768;2022-10-13T09:06:57;13.50;96.40
53748;DHT22;39655;53.210;5.768;2022-10-13T09:09:26;13.50;96.40
53748;DHT22;39655;53.210;5.768;2022-10-13T09:11:52;13.60;96.40
53748;DHT22;39655;53.210;5.768;2022-10-13T09:14:33;13.60;96.40
53748;DHT22;39655;53.210;5.768;2022-10-13T09:17:18;13.60;96.30
53748;DHT22;39655;53.210;5.768;2022-10-13T09:20:06;13.60;96.40
53748;DHT22;39655;53.210;5.768;2022-10-13T09:22:36;13.60;96.40
53748;DHT22;39655;53.210;5.768;2022-10-13T09:25:23;13.60;96.30
53748;DHT22;39655;53.210;5.768;2022-10-13T09:27:51;13.70;96.30
53748;DHT22;39655;53.210;5.768;2022-10-13T09:30:32;13.70;96.30
53748;DHT22;39655;53.210;5.768;2022-10-13T09:35:32;13.70;96.30
53748;DHT22;39655;53.210;5.768;2022-10-13T09:40:35;13.80;96.30
53748;DHT22;39655;53.210;5.768;2022-10-13T09:43:05;13.80;96.30
53748;DHT22;39655;53.210;5.768;2022-10-13T09:45:31;13.90;96.40
53748;DHT22;39655;53.210;5.768;2022-10-13T09:48:05;13.90;96.30
53748;DHT22;39655;53.210;5.768;2022-10-13T09:50:33;14.10;96.40
53748;DHT22;39655;53.210;5.768;2022-10-13T09:53:31;14.10;96.40
53748;DHT22;39655;53.210;5.768;2022-10-13T10:01:27;14.20;96.10
53748;DHT22;39655;53.210;5.768;2022-10-13T10:04:07;14.20;96.00
53748;DHT22;39655;53.210;5.768;2022-10-13T10:06:37;14.20;96.10
53748;DHT22;39655;53.210;5.768;2022-10-13T10:11:58;14.20;95.80
53748;DHT22;39655;53.210;5.768;2022-10-13T10:22:12;14.30;95.40
53748;DHT22;39655;53.210;5.768;2022-10-13T10:24:44;14.20;95.50
53748;DHT22;39655;53.210;5.768;2022-10-13T10:27:29;14.20;95.50
53748;DHT22;39655;53.210;5.768;2022-10-13T10:33:02;14.20;95.50
53748;DHT22;39655;53.210;5.768;2022-10-13T10:35:47;14.30;95.60
53748;DHT22;39655;53.210;5.768;2022-10-13T10:38:36;14.30;95.60
53748;DHT22;39655;53.210;5.768;2022-10-13T10:41:31;14.30;95.60
53748;DHT22;39655;53.210;5.768;2022-10-13T10:44:01;14.40;95.40
53748;DHT22;39655;53.210;5.768;2022-10-13T10:46:31;14.40;95.50
53748;DHT22;39655;53.210;5.768;2022-10-13T10:49:02;14.50;95.60
53748;DHT22;39655;53.210;5.768;2022-10-13T10:51:34;14.50;95.20
53748;DHT22;39655;53.210;5.768;2022-10-13T10:56:33;14.60;94.80
53748;DHT22;39655;53.210;5.768;2022-10-13T10:59:20;14.60;94.80
53748;DHT22;39655;53.210;5.768;2022-10-13T11:02:05;14.70;94.80
53748;DHT22;39655;53.210;5.768;2022-10-13T11:04:38;14.70;94.60
53748;DHT22;39655;53.210;5.768;2022-10-13T11:17:34;14.80;93.30
53748;DHT22;39655;53.210;5.768;2022-10-13T11:25:42;14.90;93.70
53748;DHT22;39655;53.210;5.768;2022-10-13T11:31:45;14.90;93.60
53748;DHT22;39655;53.210;5.768;2022-10-13T11:36:46;15.00;93.50
53748;DHT22;39655;53.210;5.768;2022-10-13T11:44:56;15.10;92.80
53748;DHT22;39655;53.210;5.768;2022-10-13T11:58:16;15.20;92.30
53748;DHT22;39655;53.210;5.768;2022-10-13T12:00:50;15.20;91.60
53748;DHT22;39655;53.210;5.768;2022-10-13T12:03:30;15.20;91.50
53748;DHT22;39655;53.210;5.768;2022-10-13T12:06:02;15.20;91.40
53748;DHT22;39655;53.210;5.768;2022-10-13T12:08:32;15.20;91.10
53748;DHT22;39655;53.210;5.768;2022-10-13T12:10:59;15.20;91.10
53748;DHT22;39655;53.210;5.768;2022-10-13T12:13:30;15.30;91.50
53748;DHT22;39655;53.210;5.768;2022-10-13T12:16:06;15.20;91.50
53748;DHT22;39655;53.210;5.768;2022-10-13T12:18:34;15.20;91.00
53748;DHT22;39655;53.210;5.768;2022-10-13T12:21:12;15.20;90.70
53748;DHT22;39655;53.210;5.768;2022-10-13T12:23:39;15.20;91.00
53748;DHT22;39655;53.210;5.768;2022-10-13T12:26:05;15.40;90.80
53748;DHT22;39655;53.210;5.768;2022-10-13T12:29:11;15.40;91.00
53748;DHT22;39655;53.210;5.768;2022-10-13T12:31:39;15.50;90.70
53748;DHT22;39655;53.210;5.768;2022-10-13T12:34:21;15.50;89.90
53748;DHT22;39655;53.210;5.768;2022-10-13T12:37:12;15.50;90.10
53748;DHT22;39655;53.210;5.768;2022-10-13T12:39:39;15.50;90.10
53748;DHT22;39655;53.210;5.768;2022-10-13T12:42:06;15.60;90.00
53748;DHT22;39655;53.210;5.768;2022-10-13T12:44:34;15.50;90.00
53748;DHT22;39655;53.210;5.768;2022-10-13T12:47:01;15.50;89.60
53748;DHT22;39655;53.210;5.768;2022-10-13T12:49:35;15.40;88.70
53748;DHT22;39655;53.210;5.768;2022-10-13T12:52:23;15.40;89.00
53748;DHT22;39655;53.210;5.768;2022-10-13T12:54:53;15.40;88.50
53748;DHT22;39655;53.210;5.768;2022-10-13T12:57:33;15.50;88.70
53748;DHT22;39655;53.210;5.768;2022-10-13T13:00:20;15.50;87.10
53748;DHT22;39655;53.210;5.768;2022-10-13T13:05:41;15.70;87.70
53748;DHT22;39655;53.210;5.768;2022-10-13T13:08:27;15.70;84.70
53748;DHT22;39655;53.210;5.768;2022-10-13T13:13:45;15.80;85.00
53748;DHT22;39655;53.210;5.768;2022-10-13T13:16:21;15.80;85.60
53748;DHT22;39655;53.210;5.768;2022-10-13T13:18:51;15.90;86.00
53748;DHT22;39655;53.210;5.768;2022-10-13T13:21:18;15.80;84.80
53748;DHT22;39655;53.210;5.768;2022-10-13T13:23:46;15.80;85.20
53748;DHT22;39655;53.210;5.768;2022-10-13T13:28:48;15.70;85.30
53748;DHT22;39655;53.210;5.768;2022-10-13T13:31:15;15.60;85.20
53748;DHT22;39655;53.210;5.768;2022-10-13T13:33:41;15.60;86.20
53748;DHT22;39655;53.210;5.768;2022-10-13T13:36:14;15.50;86.20
53748;DHT22;39655;53.210;5.768;2022-10-13T13:38:41;15.40;86.40
53748;DHT22;39655;53.210;5.768;2022-10-13T13:41:11;15.40;86.40
53748;DHT22;39655;53.210;5.768;2022-10-13T13:43:37;15.40;87.00
53748;DHT22;39655;53.210;5.768;2022-10-13T13:46:04;15.50;86.80
53748;DHT22;39655;53.210;5.768;2022-10-13T13:48:30;15.50;86.80
53748;DHT22;39655;53.210;5.768;2022-10-13T13:50:56;15.50;87.20
53748;DHT22;39655;53.210;5.768;2022-10-13T13:53:22;15.60;87.30
53748;DHT22;39655;53.210;5.768;2022-10-13T13:55:47;15.60;87.00
53748;DHT22;39655;53.210;5.768;2022-10-13T13:58:13;15.60;86.80
53748;DHT22;39655;53.210;5.768;2022-10-13T14:00:38;15.60;86.00
53748;DHT22;39655;53.210;5.768;2022-10-13T14:03:04;15.60;86.30
53748;DHT22;39655;53.210;5.768;2022-10-13T14:05:30;15.60;86.50
53748;DHT22;39655;53.210;5.768;2022-10-13T14:07:56;15.60;86.10
53748;DHT22;39655;53.210;5.768;2022-10-13T14:10:23;15.60;86.20
53748;DHT22;39655;53.210;5.768;2022-10-13T14:12:49;15.60;86.70
53748;DHT22;39655;53.210;5.768;2022-10-13T14:15:18;15.60;86.70
53748;DHT22;39655;53.210;5.768;2022-10-13T14:17:44;15.70;86.60
53748;DHT22;39655;53.210;5.768;2022-10-13T14:20:10;15.70;86.70
53748;DHT22;39655;53.210;5.768;2022-10-13T14:22:38;15.70;86.60
53748;DHT22;39655;53.210;5.768;2022-10-13T14:25:05;15.60;85.30
53748;DHT22;39655;53.210;5.768;2022-10-13T14:27:32;15.60;85.70
53748;DHT22;39655;53.210;5.768;2022-10-13T14:29:58;15.60;85.50
53748;DHT22;39655;53.210;5.768;2022-10-13T14:32:24;15.60;85.70
53748;DHT22;39655;53.210;5.768;2022-10-13T14:34:49;15.50;86.00
53748;DHT22;39655;53.210;5.768;2022-10-13T14:37:18;15.50;86.40
53748;DHT22;39655;53.210;5.768;2022-10-13T14:39:43;15.40;86.40
53748;DHT22;39655;53.210;5.768;2022-10-13T14:42:09;15.40;86.80
53748;DHT22;39655;53.210;5.768;2022-10-13T14:44:34;15.40;86.80
53748;DHT22;39655;53.210;5.768;2022-10-13T14:47:00;15.40;86.30
53748;DHT22;39655;53.210;5.768;2022-10-13T14:49:26;15.40;86.60
53748;DHT22;39655;53.210;5.768;2022-10-13T14:51:51;15.40;87.20
53748;DHT22;39655;53.210;5.768;2022-10-13T14:54:19;15.40;87.40
53748;DHT22;39655;53.210;5.768;2022-10-13T14:56:45;15.50;87.30
53748;DHT22;39655;53.210;5.768;2022-10-13T14:59:11;15.50;87.30
53748;DHT22;39655;53.210;5.768;2022-10-13T15:01:38;15.60;87.70
53748;DHT22;39655;53.210;5.768;2022-10-13T15:04:05;15.60;88.10
53748;DHT22;39655;53.210;5.768;2022-10-13T15:06:31;15.60;88.50
53748;DHT22;39655;53.210;5.768;2022-10-13T15:08:57;15.70;88.50
53748;DHT22;39655;53.210;5.768;2022-10-13T15:11:24;15.70;88.50
53748;DHT22;39655;53.210;5.768;2022-10-13T15:13:50;15.70;88.40
53748;DHT22;39655;53.210;5.768;2022-10-13T15:16:22;15.70;88.50
53748;DHT22;39655;53.210;5.768;2022-10-13T15:18:48;15.60;88.60
53748;DHT22;39655;53.210;5.768;2022-10-13T15:21:14;15.60;88.80
53748;DHT22;39655;53.210;5.768;2022-10-13T15:23:40;15.70;89.00
53748;DHT22;39655;53.210;5.768;2022-10-13T15:26:06;15.70;89.00
53748;DHT22;39655;53.210;5.768;2022-10-13T15:28:41;15.70;88.80
53748;DHT22;39655;53.210;5.768;2022-10-13T15:31:07;15.80;88.70
53748;DHT22;39655;53.210;5.768;2022-10-13T15:33:33;15.80;88.60
53748;DHT22;39655;53.210;5.768;2022-10-13T15:35:59;15.80;88.50
53748;DHT22;39655;53.210;5.768;2022-10-13T15:38:25;15.90;88.60
53748;DHT22;39655;53.210;5.768;2022-10-13T15:40:51;15.90;88.10
53748;DHT22;39655;53.210;5.768;2022-10-13T15:43:17;15.90;88.10
53748;DHT22;39655;53.210;5.768;2022-10-13T15:45:53;15.80;88.10
53748;DHT22;39655;53.210;5.768;2022-10-13T15:48:20;15.80;87.50
53748;DHT22;39655;53.210;5.768;2022-10-13T15:50:48;15.70;87.20
53748;DHT22;39655;53.210;5.768;2022-10-13T15:53:14;15.60;87.30
53748;DHT22;39655;53.210;5.768;2022-10-13T15:55:40;15.60;87.80
53748;DHT22;39655;53.210;5.768;2022-10-13T15:58:06;15.50;88.10
53748;DHT22;39655;53.210;5.768;2022-10-13T16:00:34;15.50;88.50
53748;DHT22;39655;53.210;5.768;2022-10-13T16:03:15;15.50;88.70
53748;DHT22;39655;53.210;5.768;2022-10-13T16:05:42;15.50;89.00
53748;DHT22;39655;53.210;5.768;2022-10-13T16:08:08;15.50;89.30
53748;DHT22;39655;53.210;5.768;2022-10-13T16:10:34;15.50;89.40
53748;DHT22;39655;53.210;5.768;2022-10-13T16:12:59;15.40;89.20
53748;DHT22;39655;53.210;5.768;2022-10-13T16:15:25;15.40;89.00
53748;DHT22;39655;53.210;5.768;2022-10-13T16:17:51;15.40;89.10
53748;DHT22;39655;53.210;5.768;2022-10-13T16:20:17;15.30;89.20
53748;DHT22;39655;53.210;5.768;2022-10-13T16:22:43;15.30;89.30
53748;DHT22;39655;53.210;5.768;2022-10-13T16:25:09;15.30;89.40
53748;DHT22;39655;53.210;5.768;2022-10-13T16:27:35;15.20;89.50
53748;DHT22;39655;53.210;5.768;2022-10-13T16:30:01;15.10;89.50
53748;DHT22;39655;53.210;5.768;2022-10-13T16:32:27;15.10;89.60
53748;DHT22;39655;53.210;5.768;2022-10-13T16:34:58;15.00;89.60
53748;DHT22;39655;53.210;5.768;2022-10-13T16:37:24;15.00;89.80
53748;DHT22;39655;53.210;5.768;2022-10-13T16:39:49;14.90;89.90
53748;DHT22;39655;53.210;5.768;2022-10-13T16:42:15;14.90;90.10
53748;DHT22;39655;53.210;5.768;2022-10-13T16:44:41;14.80;90.20
53748;DHT22;39655;53.210;5.768;2022-10-13T16:47:06;14.80;90.40
53748;DHT22;39655;53.210;5.768;2022-10-13T16:49:32;14.70;90.40
53748;DHT22;39655;53.210;5.768;2022-10-13T16:51:59;14.60;90.50
53748;DHT22;39655;53.210;5.768;2022-10-13T16:54:24;14.60;90.60
53748;DHT22;39655;53.210;5.768;2022-10-13T16:56:50;14.60;90.70
53748;DHT22;39655;53.210;5.768;2022-10-13T16:59:16;14.50;90.80
53748;DHT22;39655;53.210;5.768;2022-10-13T17:01:41;14.50;91.10
53748;DHT22;39655;53.210;5.768;2022-10-13T17:04:08;14.40;91.30
53748;DHT22;39655;53.210;5.768;2022-10-13T17:06:34;14.40;91.60
53748;DHT22;39655;53.210;5.768;2022-10-13T17:09:03;14.30;91.70
53748;DHT22;39655;53.210;5.768;2022-10-13T17:11:31;14.30;91.70
53748;DHT22;39655;53.210;5.768;2022-10-13T17:13:58;14.30;91.70
53748;DHT22;39655;53.210;5.768;2022-10-13T17:16:24;14.30;91.70